createdAt,value
2023-01-27T00:00:17.283Z,23.67
2023-01-27T00:05:11.204Z,23.07
2023-01-27T00:10:05.056Z,26.43
2023-01-27T00:14:57.035Z,24.53
2023-01-27T00:19:49.049Z,23.07
2023-01-27T00:24:41.708Z,23.60
2023-01-27T00:29:33.728Z,29.90
2023-01-27T00:34:25.770Z,22.10
2023-01-27T00:39:17.836Z,26.17
2023-01-27T00:44:14.663Z,24.33
2023-01-27T00:49:11.053Z,21.20
2023-01-27T00:54:06.287Z,24.10
2023-01-27T00:58:58.659Z,23.03
2023-01-27T01:03:51.138Z,23.57
2023-01-27T01:08:43.802Z,27.97
2023-01-27T01:13:36.184Z,23.20
2023-01-27T01:18:28.204Z,23.60
2023-01-27T01:23:20.245Z,23.93
2023-01-27T01:28:12.332Z,21.07
2023-01-27T01:33:04.570Z,22.03
2023-01-27T01:37:56.814Z,20.10
2023-01-27T01:43:02.400Z,22.47
2023-01-27T01:47:57.359Z,20.80
2023-01-27T01:52:51.272Z,22.17
2023-01-27T01:57:45.318Z,19.57
2023-01-27T02:02:39.222Z,18.90
2023-01-27T02:13:45.465Z,22.57
2023-01-27T02:18:41.425Z,23.57
2023-01-27T02:23:42.332Z,21.90
2023-01-27T02:28:35.573Z,23.67
2023-01-27T02:33:27.860Z,27.47
2023-01-27T02:38:20.326Z,28.00
2023-01-27T02:43:12.426Z,34.07
2023-01-27T02:48:04.562Z,32.23
2023-01-27T02:52:57.269Z,30.70
2023-01-27T02:57:49.389Z,30.20
2023-01-27T03:02:55.392Z,28.80
2023-01-27T03:07:47.433Z,30.93
2023-01-27T03:12:39.786Z,32.60
2023-01-27T03:17:54.022Z,32.70
2023-01-27T03:22:51.024Z,33.60
2023-01-27T03:27:48.608Z,31.13
2023-01-27T03:33:05.528Z,29.57
2023-01-27T03:38:35.160Z,26.53
2023-01-27T03:43:45.836Z,32.80
2023-01-27T03:48:38.498Z,31.03
2023-01-27T03:53:30.465Z,27.60
2023-01-27T03:58:27.445Z,27.03
2023-01-27T04:03:39.162Z,24.50
2023-01-27T04:08:31.232Z,23.87
2023-01-27T04:13:23.418Z,24.23
2023-01-27T04:18:16.114Z,30.80
2023-01-27T04:23:08.107Z,28.73
2023-01-27T04:28:00.141Z,28.37
2023-01-27T04:32:52.191Z,25.27
2023-01-27T04:37:44.457Z,24.40
2023-01-27T04:42:36.729Z,23.63
2023-01-27T04:47:28.771Z,24.57
2023-01-27T04:52:20.778Z,26.67
2023-01-27T04:57:14.360Z,27.23
2023-01-27T05:02:06.917Z,27.23
2023-01-27T05:06:59.012Z,29.87
2023-01-27T05:11:51.056Z,27.73
2023-01-27T05:16:43.248Z,32.50
2023-01-27T05:21:35.299Z,31.10
2023-01-27T05:26:28.269Z,26.07
2023-01-27T05:31:23.082Z,31.37
2023-01-27T05:36:17.433Z,34.40
2023-01-27T05:41:14.500Z,39.93
2023-01-27T05:46:15.505Z,32.40
2023-01-27T05:51:08.259Z,28.97
2023-01-27T05:56:04.645Z,27.30
2023-01-27T06:01:00.942Z,28.43
2023-01-27T06:05:55.641Z,32.17
2023-01-27T06:10:47.926Z,29.40
2023-01-27T06:15:41.527Z,22.97
2023-01-27T06:20:33.876Z,21.17
2023-01-27T06:32:27.425Z,27.33
2023-01-27T06:37:19.466Z,30.87
2023-01-27T06:42:11.556Z,23.23
2023-01-27T06:47:03.797Z,23.20
2023-01-27T06:51:55.751Z,22.63
2023-01-27T06:56:48.005Z,18.07
2023-01-27T07:01:40.214Z,14.07
2023-01-27T07:06:33.126Z,14.20
2023-01-27T07:11:25.519Z,12.97
2023-01-27T07:16:17.613Z,15.37
2023-01-27T07:21:09.711Z,15.47
2023-01-27T07:26:05.722Z,20.03
2023-01-27T07:31:03.449Z,21.27
2023-01-27T07:35:56.058Z,19.13
2023-01-27T07:40:48.129Z,21.63
2023-01-27T07:45:40.116Z,19.80
2023-01-27T07:50:32.344Z,25.63
2023-01-27T07:55:24.431Z,21.50
2023-01-27T08:00:16.906Z,24.73
2023-01-27T08:05:09.403Z,23.03
2023-01-27T08:10:01.531Z,26.80
2023-01-27T08:14:54.728Z,20.03
2023-01-27T08:19:47.011Z,16.70
2023-01-27T08:24:39.074Z,16.33
2023-01-27T08:29:33.307Z,15.77
2023-01-27T08:34:25.447Z,14.97
2023-01-27T08:39:17.525Z,15.00
2023-01-27T08:44:09.590Z,11.60
2023-01-27T08:49:01.911Z,15.27
2023-01-27T08:53:54.025Z,17.27
2023-01-27T08:58:52.221Z,17.33
2023-01-27T09:03:44.291Z,14.17
2023-01-27T09:08:36.377Z,13.13
2023-01-27T09:13:28.920Z,15.33
2023-01-27T09:18:21.406Z,10.87
2023-01-27T09:23:14.762Z,16.43
2023-01-27T09:28:10.180Z,14.63
2023-01-27T09:33:02.307Z,14.87
2023-01-27T09:37:59.190Z,17.30
2023-01-27T09:43:10.892Z,18.13
2023-01-27T09:48:11.171Z,18.17
2023-01-27T09:53:33.331Z,17.17
2023-01-27T09:58:41.860Z,16.50
2023-01-27T10:03:43.526Z,18.30
2023-01-27T10:08:54.523Z,18.77
2023-01-27T10:13:47.719Z,19.20
2023-01-27T10:19:00.656Z,20.47
2023-01-27T10:24:28.230Z,22.40
2023-01-27T10:29:44.567Z,30.43
2023-01-27T10:34:52.895Z,46.20
2023-01-27T10:40:14.288Z,26.50
2023-01-27T10:45:28.052Z,33.20
2023-01-27T10:50:44.167Z,26.93
2023-01-27T10:55:53.219Z,24.50
2023-01-27T11:06:08.637Z,26.83
2023-01-27T11:11:23.879Z,31.40
2023-01-27T11:16:20.817Z,26.10
2023-01-27T11:21:18.564Z,31.67
2023-01-27T11:26:30.401Z,30.57
2023-01-27T11:31:44.078Z,27.47
2023-01-27T11:36:36.450Z,28.17
2023-01-27T11:41:28.638Z,29.67
2023-01-27T11:46:24.453Z,34.63
2023-01-27T11:51:23.419Z,47.20
2023-01-27T11:56:19.071Z,37.60
2023-01-27T12:01:16.735Z,27.80
2023-01-27T12:06:34.640Z,25.87
2023-01-27T12:11:31.792Z,25.53
2023-01-27T12:16:50.312Z,25.40
2023-01-27T12:21:52.487Z,24.90
2023-01-27T12:26:45.387Z,27.00
2023-01-27T12:31:48.016Z,26.17
2023-01-27T12:36:43.181Z,27.07
2023-01-27T12:41:37.790Z,23.17
2023-01-27T12:46:32.346Z,25.27
2023-01-27T12:51:44.999Z,25.23
2023-01-27T12:56:37.579Z,20.93
2023-01-27T13:01:41.351Z,21.30
2023-01-27T13:06:43.608Z,31.03
2023-01-27T13:11:40.066Z,21.60
2023-01-27T13:16:32.337Z,23.47
2023-01-27T13:21:39.400Z,27.87
2023-01-27T13:26:34.993Z,29.30
2023-01-27T13:31:37.102Z,20.77
2023-01-27T13:36:31.923Z,18.23
2023-01-27T13:41:48.822Z,24.20
2023-01-27T13:46:42.032Z,22.47
2023-01-27T13:51:34.263Z,16.67
2023-01-27T13:56:26.853Z,17.80
2023-01-27T14:01:28.615Z,19.60
2023-01-27T14:06:39.933Z,15.20
2023-01-27T14:11:38.592Z,14.47
2023-01-27T14:16:37.698Z,13.57
2023-01-27T14:21:52.709Z,14.17
2023-01-27T14:27:01.462Z,16.20
2023-01-27T14:32:21.580Z,16.43
2023-01-27T14:37:55.077Z,19.90
2023-01-27T14:43:06.049Z,19.70
2023-01-27T14:48:02.834Z,15.03
2023-01-27T14:53:17.124Z,13.73
2023-01-27T14:58:47.725Z,16.40
2023-01-27T15:03:46.111Z,15.77
2023-01-27T15:09:01.881Z,14.13
2023-01-27T15:14:15.578Z,14.63
2023-01-27T15:19:33.717Z,15.30
2023-01-27T15:24:43.533Z,13.57
2023-01-27T15:29:36.204Z,12.83
2023-01-27T15:34:30.040Z,12.93
2023-01-27T15:39:35.580Z,14.87
2023-01-27T15:44:39.986Z,12.10
2023-01-27T15:49:51.236Z,14.70
2023-01-27T15:54:44.961Z,12.77
2023-01-27T15:59:58.872Z,12.13
2023-01-27T16:05:16.524Z,11.80
2023-01-27T16:10:16.981Z,11.43
2023-01-27T16:15:15.377Z,11.50
2023-01-27T16:20:25.181Z,11.83
2023-01-27T16:25:44.133Z,11.27
2023-01-27T16:30:43.751Z,9.23
2023-01-27T16:36:06.156Z,9.57
2023-01-27T16:41:09.338Z,7.87
2023-01-27T16:46:02.379Z,8.47
2023-01-27T16:51:05.784Z,9.07
2023-01-27T16:56:02.840Z,8.10
2023-01-27T17:00:57.604Z,13.43
2023-01-27T17:05:52.330Z,12.47
2023-01-27T17:10:56.176Z,13.70
2023-01-27T17:15:48.278Z,15.27
2023-01-27T17:20:45.941Z,15.13
2023-01-27T17:25:39.785Z,16.73
2023-01-27T17:30:39.626Z,16.47
2023-01-27T17:35:35.400Z,14.83
2023-01-27T17:40:27.374Z,16.07
2023-01-27T17:45:28.703Z,19.23
2023-01-27T17:50:27.509Z,21.50
2023-01-27T17:55:21.857Z,18.13
2023-01-27T18:00:30.819Z,26.50
2023-01-27T18:05:28.351Z,19.70
2023-01-27T18:10:35.309Z,24.27
2023-01-27T18:15:47.587Z,21.93
2023-01-27T18:20:39.722Z,22.57
2023-01-27T18:25:31.882Z,20.90
2023-01-27T18:30:26.527Z,28.53
2023-01-27T18:35:30.785Z,25.23
2023-01-27T18:40:34.368Z,24.53
2023-01-27T18:45:27.652Z,24.63
2023-01-27T18:50:21.829Z,28.83
2023-01-27T18:55:21.250Z,22.03
2023-01-27T19:00:18.983Z,32.17
2023-01-27T19:05:32.948Z,26.43
2023-01-27T19:10:34.762Z,25.67
2023-01-27T19:15:30.577Z,25.57
2023-01-27T19:20:25.726Z,30.97
2023-01-27T19:25:18.045Z,28.00
2023-01-27T19:30:37.601Z,29.30
2023-01-27T19:35:32.385Z,39.90
2023-01-27T19:40:28.630Z,32.33
2023-01-27T19:45:22.351Z,39.77
2023-01-27T19:50:23.348Z,32.60
2023-01-27T19:55:16.566Z,30.53
2023-01-27T20:00:24.400Z,33.53
2023-01-27T20:05:17.084Z,29.90
2023-01-27T20:10:18.351Z,28.07
2023-01-27T20:15:18.300Z,29.87
2023-01-27T20:20:11.075Z,29.10
2023-01-27T20:25:04.766Z,29.87
2023-01-27T20:29:57.136Z,30.03
2023-01-27T20:34:49.250Z,27.77
2023-01-27T20:39:41.255Z,32.00
2023-01-27T20:44:33.263Z,32.00
2023-01-27T20:49:25.376Z,30.80
2023-01-27T20:54:17.457Z,28.57
2023-01-27T20:59:09.607Z,31.17
2023-01-27T21:04:01.681Z,27.97
2023-01-27T21:08:53.726Z,26.97
2023-01-27T21:13:46.155Z,29.87
2023-01-27T21:18:38.439Z,26.63
2023-01-27T21:23:32.574Z,29.97
2023-01-27T21:28:24.618Z,32.30
2023-01-27T21:33:17.150Z,29.00
2023-01-27T21:38:09.256Z,33.50
2023-01-27T21:43:19.538Z,31.63
2023-01-27T21:48:11.538Z,28.90
2023-01-27T21:53:09.775Z,27.63
2023-01-27T21:58:01.787Z,28.13
2023-01-27T22:02:58.965Z,28.53
2023-01-27T22:07:52.148Z,30.03
2023-01-27T22:12:44.850Z,29.27
2023-01-27T22:17:36.884Z,29.53
2023-01-27T22:22:28.926Z,31.30
2023-01-27T22:27:20.990Z,27.40
2023-01-27T22:32:13.078Z,27.97
2023-01-27T22:37:05.236Z,23.80
2023-01-27T22:41:57.251Z,28.40
2023-01-27T22:46:49.669Z,26.27
2023-01-27T22:51:41.812Z,22.63
2023-01-27T22:56:33.757Z,25.17
2023-01-27T23:01:27.198Z,24.30
2023-01-27T23:06:19.439Z,24.27
2023-01-27T23:11:12.076Z,26.43
2023-01-27T23:16:04.477Z,26.57
2023-01-27T23:21:06.889Z,24.77
2023-01-27T23:25:59.107Z,24.23
2023-01-27T23:30:51.640Z,16.57
2023-01-27T23:35:43.945Z,17.27
2023-01-27T23:40:37.500Z,10.77
2023-01-27T23:45:29.559Z,11.53
2023-01-27T23:50:21.849Z,8.57
2023-01-27T23:55:15.446Z,12.20
